sensor_id;sensor_type;location;lat;lon;timestamp;P1;durP1;ratioP1;P2;durP2;ratioP2
20449;SDS011;10384;51.940;8.432;2023-05-15T00:00:30;9.73;;;5.60;;
20449;SDS011;10384;51.940;8.432;2023-05-15T00:02:56;8.73;;;5.17;;
20449;SDS011;10384;51.940;8.432;2023-05-15T00:05:22;10.03;;;5.60;;
20449;SDS011;10384;51.940;8.432;2023-05-15T00:07:48;9.43;;;5.50;;
20449;SDS011;10384;51.940;8.432;2023-05-15T00:10:14;8.40;;;5.77;;
20449;SDS011;10384;51.940;8.432;2023-05-15T00:12:40;8.77;;;5.40;;
20449;SDS011;10384;51.940;8.432;2023-05-15T00:15:06;10.07;;;5.37;;
20449;SDS011;10384;51.940;8.432;2023-05-15T00:17:33;8.03;;;5.23;;
20449;SDS011;10384;51.940;8.432;2023-05-15T00:19:58;9.63;;;5.43;;
20449;SDS011;10384;51.940;8.432;2023-05-15T00:22:24;9.10;;;5.50;;
20449;SDS011;10384;51.940;8.432;2023-05-15T00:24:51;7.53;;;5.10;;
20449;SDS011;10384;51.940;8.432;2023-05-15T00:27:17;8.03;;;5.17;;
20449;SDS011;10384;51.940;8.432;2023-05-15T00:29:43;8.13;;;4.50;;
20449;SDS011;10384;51.940;8.432;2023-05-15T00:32:09;7.77;;;5.00;;
20449;SDS011;10384;51.940;8.432;2023-05-15T00:34:35;7.90;;;5.50;;
20449;SDS011;10384;51.940;8.432;2023-05-15T00:37:01;7.97;;;4.93;;
20449;SDS011;10384;51.940;8.432;2023-05-15T00:39:27;7.67;;;5.27;;
20449;SDS011;10384;51.940;8.432;2023-05-15T00:41:53;7.63;;;4.70;;
20449;SDS011;10384;51.940;8.432;2023-05-15T00:44:19;7.80;;;4.33;;
20449;SDS011;10384;51.940;8.432;2023-05-15T00:46:45;9.67;;;5.50;;
20449;SDS011;10384;51.940;8.432;2023-05-15T00:49:11;7.63;;;4.70;;
20449;SDS011;10384;51.940;8.432;2023-05-15T00:51:41;8.93;;;5.50;;
20449;SDS011;10384;51.940;8.432;2023-05-15T00:54:07;8.37;;;5.03;;
20449;SDS011;10384;51.940;8.432;2023-05-15T00:56:33;8.97;;;5.63;;
20449;SDS011;10384;51.940;8.432;2023-05-15T00:59:01;8.77;;;5.23;;
20449;SDS011;10384;51.940;8.432;2023-05-15T01:01:28;7.50;;;5.30;;
20449;SDS011;10384;51.940;8.432;2023-05-15T01:03:58;10.80;;;4.77;;
20449;SDS011;10384;51.940;8.432;2023-05-15T01:06:24;6.93;;;5.37;;
20449;SDS011;10384;51.940;8.432;2023-05-15T01:08:50;7.50;;;5.07;;
20449;SDS011;10384;51.940;8.432;2023-05-15T01:11:17;8.83;;;5.10;;
20449;SDS011;10384;51.940;8.432;2023-05-15T01:13:45;9.67;;;5.63;;
20449;SDS011;10384;51.940;8.432;2023-05-15T01:16:11;8.23;;;5.43;;
20449;SDS011;10384;51.940;8.432;2023-05-15T01:18:37;8.50;;;5.27;;
20449;SDS011;10384;51.940;8.432;2023-05-15T01:28:47;8.03;;;5.17;;
20449;SDS011;10384;51.940;8.432;2023-05-15T01:31:18;9.50;;;5.47;;
20449;SDS011;10384;51.940;8.432;2023-05-15T01:33:47;8.90;;;5.07;;
20449;SDS011;10384;51.940;8.432;2023-05-15T01:36:15;7.67;;;5.13;;
20449;SDS011;10384;51.940;8.432;2023-05-15T01:38:45;7.50;;;4.73;;
20449;SDS011;10384;51.940;8.432;2023-05-15T01:41:58;7.37;;;5.30;;
20449;SDS011;10384;51.940;8.432;2023-05-15T01:43:59;9.57;;;5.23;;
20449;SDS011;10384;51.940;8.432;2023-05-15T01:46:28;8.57;;;5.27;;
20449;SDS011;10384;51.940;8.432;2023-05-15T01:48:55;7.23;;;4.83;;
20449;SDS011;10384;51.940;8.432;2023-05-15T01:51:23;8.40;;;4.90;;
20449;SDS011;10384;51.940;8.432;2023-05-15T01:53:50;9.00;;;5.07;;
20449;SDS011;10384;51.940;8.432;2023-05-15T01:56:16;8.77;;;5.40;;
20449;SDS011;10384;51.940;8.432;2023-05-15T01:58:44;8.70;;;5.43;;
20449;SDS011;10384;51.940;8.432;2023-05-15T02:01:10;8.33;;;5.30;;
20449;SDS011;10384;51.940;8.432;2023-05-15T02:03:36;8.57;;;5.67;;
20449;SDS011;10384;51.940;8.432;2023-05-15T02:06:03;7.70;;;5.10;;
20449;SDS011;10384;51.940;8.432;2023-05-15T02:08:30;9.17;;;5.60;;
20449;SDS011;10384;51.940;8.432;2023-05-15T02:10:57;10.17;;;5.33;;
20449;SDS011;10384;51.940;8.432;2023-05-15T02:13:24;8.67;;;5.00;;
20449;SDS011;10384;51.940;8.432;2023-05-15T02:15:51;5.97;;;4.30;;
20449;SDS011;10384;51.940;8.432;2023-05-15T02:18:17;7.57;;;4.53;;
20449;SDS011;10384;51.940;8.432;2023-05-15T02:20:43;8.00;;;4.97;;
20449;SDS011;10384;51.940;8.432;2023-05-15T02:23:09;8.43;;;5.07;;
20449;SDS011;10384;51.940;8.432;2023-05-15T02:28:22;8.63;;;5.03;;
20449;SDS011;10384;51.940;8.432;2023-05-15T02:30:52;8.10;;;5.10;;
20449;SDS011;10384;51.940;8.432;2023-05-15T02:35:55;9.30;;;5.43;;
20449;SDS011;10384;51.940;8.432;2023-05-15T02:39:05;7.77;;;5.10;;
20449;SDS011;10384;51.940;8.432;2023-05-15T02:41:13;6.70;;;4.37;;
20449;SDS011;10384;51.940;8.432;2023-05-15T02:43:40;8.20;;;4.67;;
20449;SDS011;10384;51.940;8.432;2023-05-15T02:46:06;7.30;;;4.83;;
20449;SDS011;10384;51.940;8.432;2023-05-15T02:48:33;8.00;;;5.27;;
20449;SDS011;10384;51.940;8.432;2023-05-15T02:51:00;7.70;;;4.90;;
20449;SDS011;10384;51.940;8.432;2023-05-15T02:53:26;8.00;;;5.13;;
20449;SDS011;10384;51.940;8.432;2023-05-15T02:55:53;8.77;;;5.47;;
20449;SDS011;10384;51.940;8.432;2023-05-15T02:58:19;10.90;;;5.10;;
20449;SDS011;10384;51.940;8.432;2023-05-15T03:00:44;6.73;;;4.83;;
20449;SDS011;10384;51.940;8.432;2023-05-15T03:03:10;8.37;;;5.10;;
20449;SDS011;10384;51.940;8.432;2023-05-15T03:05:36;12.40;;;7.20;;
20449;SDS011;10384;51.940;8.432;2023-05-15T03:08:03;12.50;;;7.70;;
20449;SDS011;10384;51.940;8.432;2023-05-15T03:10:29;10.57;;;7.30;;
20449;SDS011;10384;51.940;8.432;2023-05-15T03:12:55;10.67;;;7.13;;
20449;SDS011;10384;51.940;8.432;2023-05-15T03:15:24;9.97;;;6.53;;
20449;SDS011;10384;51.940;8.432;2023-05-15T03:17:50;9.53;;;6.47;;
20449;SDS011;10384;51.940;8.432;2023-05-15T03:20:16;7.43;;;4.73;;
20449;SDS011;10384;51.940;8.432;2023-05-15T03:22:42;7.20;;;5.17;;
20449;SDS011;10384;51.940;8.432;2023-05-15T03:25:11;9.13;;;5.23;;
20449;SDS011;10384;51.940;8.432;2023-05-15T03:27:40;8.20;;;4.97;;
20449;SDS011;10384;51.940;8.432;2023-05-15T03:30:07;7.93;;;5.07;;
20449;SDS011;10384;51.940;8.432;2023-05-15T03:32:33;9.40;;;5.00;;
20449;SDS011;10384;51.940;8.432;2023-05-15T03:34:59;7.53;;;4.60;;
20449;SDS011;10384;51.940;8.432;2023-05-15T03:37:25;8.17;;;4.50;;
20449;SDS011;10384;51.940;8.432;2023-05-15T03:39:51;7.93;;;4.83;;
20449;SDS011;10384;51.940;8.432;2023-05-15T03:42:17;8.00;;;4.93;;
20449;SDS011;10384;51.940;8.432;2023-05-15T03:44:47;7.27;;;5.00;;
20449;SDS011;10384;51.940;8.432;2023-05-15T03:47:13;8.10;;;5.40;;
20449;SDS011;10384;51.940;8.432;2023-05-15T03:49:39;7.43;;;4.83;;
20449;SDS011;10384;51.940;8.432;2023-05-15T03:52:05;7.90;;;4.67;;
20449;SDS011;10384;51.940;8.432;2023-05-15T03:54:31;9.00;;;5.43;;
20449;SDS011;10384;51.940;8.432;2023-05-15T03:56:57;7.83;;;5.23;;
20449;SDS011;10384;51.940;8.432;2023-05-15T03:59:23;11.37;;;5.60;;
20449;SDS011;10384;51.940;8.432;2023-05-15T04:01:49;9.10;;;4.83;;
20449;SDS011;10384;51.940;8.432;2023-05-15T04:04:15;11.30;;;5.80;;
20449;SDS011;10384;51.940;8.432;2023-05-15T04:06:41;10.43;;;6.00;;
20449;SDS011;10384;51.940;8.432;2023-05-15T04:09:07;8.10;;;5.63;;
20449;SDS011;10384;51.940;8.432;2023-05-15T04:11:33;9.20;;;5.80;;
20449;SDS011;10384;51.940;8.432;2023-05-15T04:13:59;9.43;;;6.23;;
20449;SDS011;10384;51.940;8.432;2023-05-15T04:16:25;7.83;;;5.33;;
20449;SDS011;10384;51.940;8.432;2023-05-15T04:18:51;10.87;;;6.07;;
20449;SDS011;10384;51.940;8.432;2023-05-15T04:21:17;10.97;;;6.07;;
20449;SDS011;10384;51.940;8.432;2023-05-15T04:23:43;10.17;;;6.00;;
20449;SDS011;10384;51.940;8.432;2023-05-15T04:26:09;8.33;;;5.30;;
20449;SDS011;10384;51.940;8.432;2023-05-15T04:28:36;9.60;;;5.50;;
20449;SDS011;10384;51.940;8.432;2023-05-15T04:31:02;9.70;;;6.10;;
20449;SDS011;10384;51.940;8.432;2023-05-15T04:33:28;9.60;;;6.37;;
20449;SDS011;10384;51.940;8.432;2023-05-15T04:35:54;12.07;;;6.73;;
20449;SDS011;10384;51.940;8.432;2023-05-15T04:38:20;11.07;;;6.60;;
20449;SDS011;10384;51.940;8.432;2023-05-15T04:40:46;12.13;;;7.20;;
20449;SDS011;10384;51.940;8.432;2023-05-15T04:43:12;12.07;;;6.83;;
20449;SDS011;10384;51.940;8.432;2023-05-15T04:45:38;11.07;;;6.93;;
20449;SDS011;10384;51.940;8.432;2023-05-15T04:48:04;14.10;;;7.53;;
20449;SDS011;10384;51.940;8.432;2023-05-15T04:50:30;11.63;;;7.27;;
20449;SDS011;10384;51.940;8.432;2023-05-15T04:52:56;12.93;;;7.80;;
20449;SDS011;10384;51.940;8.432;2023-05-15T04:55:22;13.60;;;7.83;;
20449;SDS011;10384;51.940;8.432;2023-05-15T04:57:48;16.20;;;8.23;;
20449;SDS011;10384;51.940;8.432;2023-05-15T05:00:15;16.13;;;8.13;;
20449;SDS011;10384;51.940;8.432;2023-05-15T05:02:41;13.87;;;7.87;;
20449;SDS011;10384;51.940;8.432;2023-05-15T05:05:08;12.97;;;7.80;;
20449;SDS011;10384;51.940;8.432;2023-05-15T05:07:34;13.33;;;7.67;;
20449;SDS011;10384;51.940;8.432;2023-05-15T05:10:00;13.57;;;8.20;;
20449;SDS011;10384;51.940;8.432;2023-05-15T05:12:26;14.33;;;8.10;;
20449;SDS011;10384;51.940;8.432;2023-05-15T05:14:52;15.80;;;8.83;;
20449;SDS011;10384;51.940;8.432;2023-05-15T05:17:20;14.67;;;8.40;;
20449;SDS011;10384;51.940;8.432;2023-05-15T05:19:46;15.83;;;8.37;;
20449;SDS011;10384;51.940;8.432;2023-05-15T05:22:12;16.27;;;8.57;;
20449;SDS011;10384;51.940;8.432;2023-05-15T05:24:38;14.03;;;8.30;;
20449;SDS011;10384;51.940;8.432;2023-05-15T05:27:04;17.07;;;9.73;;
20449;SDS011;10384;51.940;8.432;2023-05-15T05:29:30;17.73;;;8.83;;
20449;SDS011;10384;51.940;8.432;2023-05-15T05:31:57;15.73;;;8.27;;
20449;SDS011;10384;51.940;8.432;2023-05-15T05:34:23;13.93;;;8.87;;
20449;SDS011;10384;51.940;8.432;2023-05-15T05:36:49;18.30;;;8.77;;
20449;SDS011;10384;51.940;8.432;2023-05-15T05:39:15;17.20;;;9.27;;
20449;SDS011;10384;51.940;8.432;2023-05-15T05:41:42;14.63;;;8.33;;
20449;SDS011;10384;51.940;8.432;2023-05-15T05:44:08;15.77;;;9.07;;
20449;SDS011;10384;51.940;8.432;2023-05-15T05:46:33;17.83;;;9.57;;
20449;SDS011;10384;51.940;8.432;2023-05-15T05:48:59;14.83;;;8.57;;
20449;SDS011;10384;51.940;8.432;2023-05-15T05:51:25;15.33;;;8.80;;
20449;SDS011;10384;51.940;8.432;2023-05-15T05:53:51;15.97;;;9.50;;
20449;SDS011;10384;51.940;8.432;2023-05-15T05:56:17;18.07;;;9.83;;
20449;SDS011;10384;51.940;8.432;2023-05-15T05:58:43;17.00;;;9.97;;
20449;SDS011;10384;51.940;8.432;2023-05-15T06:01:10;21.70;;;10.90;;
20449;SDS011;10384;51.940;8.432;2023-05-15T06:03:37;16.63;;;9.57;;
20449;SDS011;10384;51.940;8.432;2023-05-15T06:06:03;19.13;;;10.73;;
20449;SDS011;10384;51.940;8.432;2023-05-15T06:08:29;17.87;;;9.50;;
20449;SDS011;10384;51.940;8.432;2023-05-15T06:10:55;22.70;;;11.97;;
20449;SDS011;10384;51.940;8.432;2023-05-15T06:13:21;21.17;;;12.10;;
20449;SDS011;10384;51.940;8.432;2023-05-15T06:15:47;21.60;;;11.97;;
20449;SDS011;10384;51.940;8.432;2023-05-15T06:18:13;18.13;;;10.90;;
20449;SDS011;10384;51.940;8.432;2023-05-15T06:20:39;19.63;;;10.33;;
20449;SDS011;10384;51.940;8.432;2023-05-15T06:23:06;20.03;;;10.37;;
20449;SDS011;10384;51.940;8.432;2023-05-15T06:25:32;20.63;;;11.03;;
20449;SDS011;10384;51.940;8.432;2023-05-15T06:27:59;19.33;;;10.43;;
20449;SDS011;10384;51.940;8.432;2023-05-15T06:30:25;19.37;;;11.23;;
20449;SDS011;10384;51.940;8.432;2023-05-15T06:32:51;20.00;;;11.77;;
20449;SDS011;10384;51.940;8.432;2023-05-15T06:35:17;24.87;;;13.03;;
20449;SDS011;10384;51.940;8.432;2023-05-15T06:37:43;22.60;;;12.40;;
20449;SDS011;10384;51.940;8.432;2023-05-15T06:40:14;21.03;;;11.70;;
20449;SDS011;10384;51.940;8.432;2023-05-15T06:42:40;20.83;;;12.63;;
20449;SDS011;10384;51.940;8.432;2023-05-15T06:45:06;22.07;;;12.00;;
20449;SDS011;10384;51.940;8.432;2023-05-15T06:47:32;25.40;;;13.27;;
20449;SDS011;10384;51.940;8.432;2023-05-15T06:49:58;24.67;;;12.47;;
20449;SDS011;10384;51.940;8.432;2023-05-15T06:52:24;23.47;;;13.83;;
20449;SDS011;10384;51.940;8.432;2023-05-15T06:54:50;24.83;;;13.27;;
20449;SDS011;10384;51.940;8.432;2023-05-15T06:57:17;26.07;;;13.73;;
20449;SDS011;10384;51.940;8.432;2023-05-15T06:59:43;22.43;;;12.23;;
20449;SDS011;10384;51.940;8.432;2023-05-15T07:02:09;24.17;;;12.37;;
20449;SDS011;10384;51.940;8.432;2023-05-15T07:04:35;22.53;;;11.77;;
20449;SDS011;10384;51.940;8.432;2023-05-15T07:07:01;20.73;;;12.17;;
20449;SDS011;10384;51.940;8.432;2023-05-15T07:09:27;20.40;;;12.17;;
20449;SDS011;10384;51.940;8.432;2023-05-15T07:11:53;22.83;;;12.40;;
20449;SDS011;10384;51.940;8.432;2023-05-15T07:14:19;21.87;;;12.00;;
20449;SDS011;10384;51.940;8.432;2023-05-15T07:16:45;21.67;;;11.80;;
20449;SDS011;10384;51.940;8.432;2023-05-15T07:19:11;20.03;;;11.80;;
20449;SDS011;10384;51.940;8.432;2023-05-15T07:21:40;22.67;;;12.60;;
20449;SDS011;10384;51.940;8.432;2023-05-15T07:24:06;20.87;;;11.00;;
20449;SDS011;10384;51.940;8.432;2023-05-15T07:26:32;19.80;;;11.20;;
20449;SDS011;10384;51.940;8.432;2023-05-15T07:28:58;21.23;;;11.23;;
20449;SDS011;10384;51.940;8.432;2023-05-15T07:31:24;21.40;;;11.80;;
20449;SDS011;10384;51.940;8.432;2023-05-15T07:33:50;23.27;;;11.77;;
20449;SDS011;10384;51.940;8.432;2023-05-15T07:36:16;23.20;;;12.13;;
20449;SDS011;10384;51.940;8.432;2023-05-15T07:38:42;23.23;;;11.27;;
20449;SDS011;10384;51.940;8.432;2023-05-15T07:41:08;24.53;;;11.80;;
20449;SDS011;10384;51.940;8.432;2023-05-15T07:43:34;22.53;;;11.00;;
20449;SDS011;10384;51.940;8.432;2023-05-15T07:46:00;17.47;;;9.53;;
20449;SDS011;10384;51.940;8.432;2023-05-15T07:48:26;23.70;;;11.80;;
20449;SDS011;10384;51.940;8.432;2023-05-15T07:50:52;21.73;;;10.57;;
20449;SDS011;10384;51.940;8.432;2023-05-15T07:53:19;21.07;;;10.83;;
20449;SDS011;10384;51.940;8.432;2023-05-15T07:55:45;18.80;;;10.53;;
20449;SDS011;10384;51.940;8.432;2023-05-15T07:58:11;19.57;;;11.53;;
20449;SDS011;10384;51.940;8.432;2023-05-15T08:00:38;23.90;;;11.17;;
20449;SDS011;10384;51.940;8.432;2023-05-15T08:03:04;20.73;;;10.00;;
20449;SDS011;10384;51.940;8.432;2023-05-15T08:05:30;21.47;;;10.77;;
20449;SDS011;10384;51.940;8.432;2023-05-15T08:07:56;26.30;;;11.30;;
20449;SDS011;10384;51.940;8.432;2023-05-15T08:10:22;22.93;;;11.67;;
20449;SDS011;10384;51.940;8.432;2023-05-15T08:12:48;25.30;;;11.77;;
20449;SDS011;10384;51.940;8.432;2023-05-15T08:15:15;22.77;;;10.30;;
20449;SDS011;10384;51.940;8.432;2023-05-15T08:17:41;19.73;;;11.87;;
20449;SDS011;10384;51.940;8.432;2023-05-15T08:20:07;27.20;;;12.13;;
20449;SDS011;10384;51.940;8.432;2023-05-15T08:22:34;25.33;;;12.20;;
20449;SDS011;10384;51.940;8.432;2023-05-15T08:25:00;24.70;;;11.00;;
20449;SDS011;10384;51.940;8.432;2023-05-15T08:27:27;23.77;;;11.63;;
20449;SDS011;10384;51.940;8.432;2023-05-15T08:29:54;23.50;;;11.33;;
20449;SDS011;10384;51.940;8.432;2023-05-15T08:32:20;20.50;;;11.57;;
20449;SDS011;10384;51.940;8.432;2023-05-15T08:34:45;25.07;;;10.57;;
20449;SDS011;10384;51.940;8.432;2023-05-15T08:37:15;24.60;;;11.77;;
20449;SDS011;10384;51.940;8.432;2023-05-15T08:39:41;20.53;;;12.00;;
20449;SDS011;10384;51.940;8.432;2023-05-15T08:42:09;18.40;;;10.87;;
20449;SDS011;10384;51.940;8.432;2023-05-15T08:44:35;21.03;;;12.33;;
20449;SDS011;10384;51.940;8.432;2023-05-15T08:47:03;20.60;;;12.80;;
20449;SDS011;10384;51.940;8.432;2023-05-15T08:52:05;24.43;;;13.00;;
20449;SDS011;10384;51.940;8.432;2023-05-15T08:54:31;22.50;;;13.07;;
20449;SDS011;10384;51.940;8.432;2023-05-15T08:56:57;23.80;;;13.17;;
20449;SDS011;10384;51.940;8.432;2023-05-15T08:59:25;24.43;;;13.03;;
20449;SDS011;10384;51.940;8.432;2023-05-15T09:01:51;23.17;;;12.50;;
20449;SDS011;10384;51.940;8.432;2023-05-15T09:04:17;25.37;;;14.03;;
20449;SDS011;10384;51.940;8.432;2023-05-15T09:06:43;24.90;;;13.53;;
20449;SDS011;10384;51.940;8.432;2023-05-15T09:09:11;22.67;;;12.47;;
20449;SDS011;10384;51.940;8.432;2023-05-15T09:11:47;26.73;;;14.30;;
20449;SDS011;10384;51.940;8.432;2023-05-15T09:14:13;27.07;;;13.97;;
20449;SDS011;10384;51.940;8.432;2023-05-15T09:16:39;28.57;;;15.13;;
20449;SDS011;10384;51.940;8.432;2023-05-15T09:19:05;28.40;;;15.40;;
20449;SDS011;10384;51.940;8.432;2023-05-15T09:21:32;31.83;;;15.93;;
20449;SDS011;10384;51.940;8.432;2023-05-15T09:24:14;32.90;;;16.20;;
20449;SDS011;10384;51.940;8.432;2023-05-15T09:26:41;29.93;;;15.03;;
20449;SDS011;10384;51.940;8.432;2023-05-15T09:29:07;30.77;;;15.93;;
20449;SDS011;10384;51.940;8.432;2023-05-15T09:31:33;30.07;;;15.67;;
20449;SDS011;10384;51.940;8.432;2023-05-15T09:34:00;32.13;;;15.43;;
20449;SDS011;10384;51.940;8.432;2023-05-15T09:36:28;29.20;;;15.57;;
20449;SDS011;10384;51.940;8.432;2023-05-15T09:38:58;33.33;;;15.90;;
20449;SDS011;10384;51.940;8.432;2023-05-15T09:41:25;30.40;;;16.13;;
20449;SDS011;10384;51.940;8.432;2023-05-15T09:43:51;29.37;;;15.57;;
20449;SDS011;10384;51.940;8.432;2023-05-15T09:46:20;28.27;;;14.27;;
20449;SDS011;10384;51.940;8.432;2023-05-15T09:48:46;27.67;;;13.77;;
20449;SDS011;10384;51.940;8.432;2023-05-15T09:51:16;25.77;;;13.50;;
20449;SDS011;10384;51.940;8.432;2023-05-15T09:53:46;29.43;;;14.50;;
20449;SDS011;10384;51.940;8.432;2023-05-15T09:56:12;30.23;;;14.30;;
20449;SDS011;10384;51.940;8.432;2023-05-15T09:58:50;28.90;;;14.60;;
20449;SDS011;10384;51.940;8.432;2023-05-15T10:01:18;31.90;;;16.03;;
20449;SDS011;10384;51.940;8.432;2023-05-15T10:03:55;30.67;;;15.13;;
20449;SDS011;10384;51.940;8.432;2023-05-15T10:06:21;33.03;;;16.43;;
20449;SDS011;10384;51.940;8.432;2023-05-15T10:08:53;28.20;;;15.23;;
20449;SDS011;10384;51.940;8.432;2023-05-15T10:11:19;30.67;;;15.10;;
20449;SDS011;10384;51.940;8.432;2023-05-15T10:13:46;31.07;;;16.00;;
20449;SDS011;10384;51.940;8.432;2023-05-15T10:16:13;35.67;;;16.67;;
20449;SDS011;10384;51.940;8.432;2023-05-15T10:18:39;34.47;;;17.23;;
20449;SDS011;10384;51.940;8.432;2023-05-15T10:21:05;33.63;;;16.00;;
20449;SDS011;10384;51.940;8.432;2023-05-15T10:23:33;31.17;;;15.60;;
20449;SDS011;10384;51.940;8.432;2023-05-15T10:26:06;33.37;;;16.00;;
20449;SDS011;10384;51.940;8.432;2023-05-15T10:28:32;31.47;;;15.50;;
20449;SDS011;10384;51.940;8.432;2023-05-15T10:31:00;31.13;;;15.27;;
20449;SDS011;10384;51.940;8.432;2023-05-15T10:33:26;31.20;;;15.27;;
20449;SDS011;10384;51.940;8.432;2023-05-15T10:35:54;30.33;;;14.67;;
20449;SDS011;10384;51.940;8.432;2023-05-15T10:38:21;33.10;;;16.23;;
20449;SDS011;10384;51.940;8.432;2023-05-15T10:40:47;33.20;;;15.83;;
20449;SDS011;10384;51.940;8.432;2023-05-15T10:43:14;30.70;;;14.93;;
20449;SDS011;10384;51.940;8.432;2023-05-15T10:45:40;28.77;;;15.03;;
20449;SDS011;10384;51.940;8.432;2023-05-15T10:48:07;31.70;;;15.87;;
20449;SDS011;10384;51.940;8.432;2023-05-15T10:50:36;29.70;;;14.47;;
20449;SDS011;10384;51.940;8.432;2023-05-15T10:53:02;29.23;;;14.63;;
20449;SDS011;10384;51.940;8.432;2023-05-15T10:55:28;29.37;;;15.20;;
20449;SDS011;10384;51.940;8.432;2023-05-15T10:57:55;35.60;;;15.83;;
20449;SDS011;10384;51.940;8.432;2023-05-15T11:02:47;31.23;;;14.93;;
20449;SDS011;10384;51.940;8.432;2023-05-15T11:05:13;27.03;;;13.70;;
20449;SDS011;10384;51.940;8.432;2023-05-15T11:07:39;29.13;;;15.07;;
20449;SDS011;10384;51.940;8.432;2023-05-15T11:12:54;29.03;;;13.60;;
20449;SDS011;10384;51.940;8.432;2023-05-15T11:15:20;29.67;;;14.27;;
20449;SDS011;10384;51.940;8.432;2023-05-15T11:18:00;30.30;;;14.63;;
20449;SDS011;10384;51.940;8.432;2023-05-15T11:20:33;29.33;;;14.30;;
20449;SDS011;10384;51.940;8.432;2023-05-15T11:23:02;35.60;;;14.20;;
20449;SDS011;10384;51.940;8.432;2023-05-15T11:25:29;33.50;;;15.10;;
20449;SDS011;10384;51.940;8.432;2023-05-15T11:27:57;28.60;;;13.80;;
20449;SDS011;10384;51.940;8.432;2023-05-15T11:33:19;27.27;;;13.20;;
20449;SDS011;10384;51.940;8.432;2023-05-15T11:35:46;26.97;;;13.57;;
20449;SDS011;10384;51.940;8.432;2023-05-15T11:38:16;27.00;;;12.80;;
20449;SDS011;10384;51.940;8.432;2023-05-15T11:40:49;28.47;;;13.60;;
20449;SDS011;10384;51.940;8.432;2023-05-15T11:43:17;24.63;;;12.87;;
20449;SDS011;10384;51.940;8.432;2023-05-15T11:45:45;25.70;;;13.23;;
20449;SDS011;10384;51.940;8.432;2023-05-15T11:48:12;23.57;;;12.60;;
20449;SDS011;10384;51.940;8.432;2023-05-15T11:50:38;27.00;;;12.40;;
20449;SDS011;10384;51.940;8.432;2023-05-15T11:53:05;25.50;;;12.97;;
20449;SDS011;10384;51.940;8.432;2023-05-15T11:55:32;30.93;;;13.33;;
20449;SDS011;10384;51.940;8.432;2023-05-15T11:57:59;24.77;;;13.57;;
20449;SDS011;10384;51.940;8.432;2023-05-15T12:00:25;24.87;;;11.67;;
20449;SDS011;10384;51.940;8.432;2023-05-15T12:02:51;27.23;;;13.83;;
20449;SDS011;10384;51.940;8.432;2023-05-15T12:05:17;22.77;;;11.33;;
20449;SDS011;10384;51.940;8.432;2023-05-15T12:07:43;27.87;;;12.60;;
20449;SDS011;10384;51.940;8.432;2023-05-15T12:10:10;20.80;;;11.27;;
20449;SDS011;10384;51.940;8.432;2023-05-15T12:12:40;24.23;;;11.10;;
20449;SDS011;10384;51.940;8.432;2023-05-15T12:15:10;22.27;;;10.97;;
20449;SDS011;10384;51.940;8.432;2023-05-15T12:17:37;19.30;;;10.30;;
20449;SDS011;10384;51.940;8.432;2023-05-15T12:20:04;21.00;;;10.67;;
20449;SDS011;10384;51.940;8.432;2023-05-15T12:22:36;21.63;;;9.97;;
20449;SDS011;10384;51.940;8.432;2023-05-15T12:25:02;17.33;;;9.40;;
20449;SDS011;10384;51.940;8.432;2023-05-15T12:27:28;19.37;;;9.80;;
20449;SDS011;10384;51.940;8.432;2023-05-15T12:29:55;19.47;;;9.90;;
20449;SDS011;10384;51.940;8.432;2023-05-15T12:32:21;18.33;;;10.00;;
20449;SDS011;10384;51.940;8.432;2023-05-15T12:34:47;19.73;;;10.00;;
20449;SDS011;10384;51.940;8.432;2023-05-15T12:37:13;17.93;;;9.17;;
20449;SDS011;10384;51.940;8.432;2023-05-15T12:39:55;18.00;;;9.50;;
20449;SDS011;10384;51.940;8.432;2023-05-15T12:42:21;20.33;;;9.53;;
20449;SDS011;10384;51.940;8.432;2023-05-15T12:44:51;20.70;;;11.07;;
20449;SDS011;10384;51.940;8.432;2023-05-15T12:47:24;23.37;;;10.77;;
20449;SDS011;10384;51.940;8.432;2023-05-15T12:49:54;19.43;;;10.23;;
20449;SDS011;10384;51.940;8.432;2023-05-15T12:52:21;22.40;;;11.67;;
20449;SDS011;10384;51.940;8.432;2023-05-15T12:54:47;16.47;;;9.43;;
20449;SDS011;10384;51.940;8.432;2023-05-15T12:57:13;16.63;;;9.03;;
20449;SDS011;10384;51.940;8.432;2023-05-15T12:59:39;21.47;;;9.87;;
20449;SDS011;10384;51.940;8.432;2023-05-15T13:02:09;16.73;;;9.73;;
20449;SDS011;10384;51.940;8.432;2023-05-15T13:04:35;17.47;;;8.80;;
20449;SDS011;10384;51.940;8.432;2023-05-15T13:07:01;17.13;;;8.90;;
20449;SDS011;10384;51.940;8.432;2023-05-15T13:09:28;15.90;;;8.53;;
20449;SDS011;10384;51.940;8.432;2023-05-15T13:11:54;14.27;;;8.70;;
20449;SDS011;10384;51.940;8.432;2023-05-15T13:14:20;16.93;;;8.47;;
20449;SDS011;10384;51.940;8.432;2023-05-15T13:16:51;14.93;;;8.50;;
20449;SDS011;10384;51.940;8.432;2023-05-15T13:19:17;14.43;;;8.17;;
20449;SDS011;10384;51.940;8.432;2023-05-15T13:21:43;12.70;;;8.00;;
20449;SDS011;10384;51.940;8.432;2023-05-15T13:24:09;9.17;;;6.43;;
20449;SDS011;10384;51.940;8.432;2023-05-15T13:26:36;8.87;;;5.90;;
20449;SDS011;10384;51.940;8.432;2023-05-15T13:29:02;10.57;;;6.33;;
20449;SDS011;10384;51.940;8.432;2023-05-15T13:31:28;14.03;;;7.10;;
20449;SDS011;10384;51.940;8.432;2023-05-15T13:33:54;12.77;;;7.13;;
20449;SDS011;10384;51.940;8.432;2023-05-15T13:36:20;13.67;;;7.70;;
20449;SDS011;10384;51.940;8.432;2023-05-15T13:38:46;12.17;;;7.27;;
20449;SDS011;10384;51.940;8.432;2023-05-15T13:41:12;12.10;;;7.10;;
20449;SDS011;10384;51.940;8.432;2023-05-15T13:43:38;11.93;;;7.37;;
20449;SDS011;10384;51.940;8.432;2023-05-15T13:46:04;14.63;;;7.00;;
20449;SDS011;10384;51.940;8.432;2023-05-15T13:48:30;12.13;;;6.70;;
20449;SDS011;10384;51.940;8.432;2023-05-15T13:50:56;14.77;;;8.00;;
20449;SDS011;10384;51.940;8.432;2023-05-15T13:53:22;13.43;;;8.00;;
20449;SDS011;10384;51.940;8.432;2023-05-15T13:55:48;13.00;;;6.60;;
20449;SDS011;10384;51.940;8.432;2023-05-15T13:58:14;14.30;;;7.23;;
20449;SDS011;10384;51.940;8.432;2023-05-15T14:00:41;12.20;;;5.93;;
20449;SDS011;10384;51.940;8.432;2023-05-15T14:03:07;12.17;;;7.33;;
20449;SDS011;10384;51.940;8.432;2023-05-15T14:05:33;12.10;;;6.53;;
20449;SDS011;10384;51.940;8.432;2023-05-15T14:07:59;14.03;;;7.57;;
20449;SDS011;10384;51.940;8.432;2023-05-15T14:10:25;11.60;;;6.53;;
20449;SDS011;10384;51.940;8.432;2023-05-15T14:12:51;12.13;;;6.70;;
20449;SDS011;10384;51.940;8.432;2023-05-15T14:15:17;12.87;;;7.13;;
20449;SDS011;10384;51.940;8.432;2023-05-15T14:17:43;12.10;;;5.57;;
20449;SDS011;10384;51.940;8.432;2023-05-15T14:20:12;10.17;;;6.77;;
20449;SDS011;10384;51.940;8.432;2023-05-15T14:22:38;13.23;;;8.13;;
20449;SDS011;10384;51.940;8.432;2023-05-15T14:25:04;13.13;;;7.60;;
20449;SDS011;10384;51.940;8.432;2023-05-15T14:27:31;11.60;;;7.33;;
20449;SDS011;10384;51.940;8.432;2023-05-15T14:29:57;14.20;;;6.50;;
20449;SDS011;10384;51.940;8.432;2023-05-15T14:32:23;12.60;;;6.23;;
20449;SDS011;10384;51.940;8.432;2023-05-15T14:34:49;11.13;;;6.57;;
20449;SDS011;10384;51.940;8.432;2023-05-15T14:37:15;11.07;;;6.10;;
20449;SDS011;10384;51.940;8.432;2023-05-15T14:39:41;9.27;;;5.53;;
20449;SDS011;10384;51.940;8.432;2023-05-15T14:42:07;16.20;;;6.57;;
20449;SDS011;10384;51.940;8.432;2023-05-15T14:44:33;15.47;;;7.03;;
20449;SDS011;10384;51.940;8.432;2023-05-15T14:47:06;16.13;;;6.20;;
20449;SDS011;10384;51.940;8.432;2023-05-15T14:49:33;11.70;;;6.30;;
20449;SDS011;10384;51.940;8.432;2023-05-15T14:51:59;13.90;;;6.60;;
20449;SDS011;10384;51.940;8.432;2023-05-15T14:54:25;12.60;;;6.50;;